Time;durP1;ratioP1;P1;durP2;ratioP2;P2;SDS_P1;SDS_P2;PMS_P1;PMS_P2;Temp;Humidity;BMP_temperature;BMP_pressure;BME280_temperature;BME280_humidity;BME280_pressure;Samples;Min_cycle;Max_cycle;Signal;HPM_P1;HPM_P2
2022/02/14 00:01:02;;;;;;;3.33;3.03;;;16.00;81.90;;;16.06;38.58;99985.41;4913672;28;99211;-59
2022/02/14 00:03:27;;;;;;;3.90;2.80;;;16.10;82.90;;;16.11;38.62;99979.78;4912384;28;99207;-61
2022/02/14 00:05:53;;;;;;;3.57;3.00;;;16.20;82.60;;;16.12;38.62;99980.63;4912839;28;105198;-57
2022/02/14 00:08:19;;;;;;;4.03;2.70;;;16.30;81.70;;;16.16;38.45;99977.63;4915377;28;97687;-60
2022/02/14 00:10:45;;;;;;;5.30;2.97;;;16.30;82.20;;;16.16;38.43;99961.66;4912127;28;97246;-59
2022/02/14 00:13:11;;;;;;;4.50;3.20;;;16.30;82.00;;;16.21;38.46;99964.88;4929239;28;102364;-59
2022/02/14 00:15:37;;;;;;;4.37;2.93;;;16.40;81.80;;;16.22;38.10;99955.94;4911715;28;97321;-60
2022/02/14 00:18:03;;;;;;;3.13;2.53;;;16.40;81.50;;;16.21;38.44;99959.56;4913414;28;99332;-59
2022/02/14 00:20:29;;;;;;;3.90;2.50;;;16.40;81.80;;;16.24;38.15;99963.81;4911017;28;97397;-59
2022/02/14 00:22:55;;;;;;;3.70;2.57;;;16.40;81.50;;;16.22;38.31;99949.75;4914503;28;97912;-58
2022/02/14 00:25:23;;;;;;;4.23;3.10;;;16.40;80.70;;;16.24;38.20;99951.34;4915344;28;113048;-59
2022/02/14 00:27:49;;;;;;;3.50;2.57;;;16.40;81.40;;;16.27;38.08;99945.81;4911128;28;97517;-60
2022/02/14 00:30:15;;;;;;;4.23;2.77;;;16.50;80.90;;;16.21;38.35;99951.56;4914207;28;119888;-57
2022/02/14 00:32:41;;;;;;;6.33;3.23;;;16.30;80.50;;;16.16;38.30;99951.03;4909948;28;98393;-58
2022/02/14 00:35:07;;;;;;;3.10;2.50;;;16.20;81.40;;;16.17;38.69;99941.22;4921787;28;97334;-60
2022/02/14 00:37:33;;;;;;;3.10;2.70;;;16.20;82.50;;;16.16;38.91;99943.03;4912585;28;98131;-59
2022/02/14 00:39:59;;;;;;;2.87;2.67;;;16.30;82.60;;;16.21;38.52;99932.94;4915507;28;99282;-59
2022/02/14 00:42:25;;;;;;;5.00;2.67;;;16.30;82.30;;;16.20;38.31;99941.88;4918432;28;99681;-62
2022/02/14 00:44:51;;;;;;;4.33;2.67;;;16.30;81.40;;;16.19;38.60;99929.53;4910439;28;103391;-59
2022/02/14 00:47:16;;;;;;;5.10;2.70;;;16.30;81.80;;;16.19;38.59;99923.34;4911923;28;107213;-58
2022/02/14 00:49:42;;;;;;;3.40;2.67;;;16.30;82.20;;;16.19;38.37;99912.69;4903165;28;105302;-59
2022/02/14 00:52:08;;;;;;;3.83;2.93;;;16.30;82.10;;;16.19;38.52;99913.56;4912776;28;101019;-58
2022/02/14 00:54:34;;;;;;;3.60;2.63;;;16.30;81.80;;;16.16;38.26;99904.94;4910279;28;98287;-60
2022/02/14 00:57:00;;;;;;;3.70;2.60;;;16.30;82.10;;;16.12;38.45;99896.34;4910734;28;111051;-57
2022/02/14 00:59:27;;;;;;;3.40;2.60;;;16.30;82.10;;;16.16;38.36;99900.47;4907504;28;97416;-62
2022/02/14 01:01:53;;;;;;;3.70;2.13;;;16.30;82.00;;;16.14;38.27;99899.72;4909057;28;97503;-57
2022/02/14 01:04:18;;;;;;;3.57;2.40;;;16.20;81.90;;;16.11;38.28;99894.63;4904001;28;98187;-59
2022/02/14 01:06:44;;;;;;;3.77;2.57;;;16.20;82.10;;;16.12;38.44;99888.34;4908193;28;109040;-59
2022/02/14 01:09:10;;;;;;;2.37;2.17;;;16.20;81.80;;;16.09;38.48;99891.25;4913985;28;96892;-56
2022/02/14 01:11:37;;;;;;;5.63;2.83;;;16.10;82.20;;;16.10;38.44;99881.44;4923720;28;96982;-58
2022/02/14 01:14:03;;;;;;;2.80;2.60;;;16.20;81.90;;;16.09;38.66;99875.28;4922877;28;97745;-58
2022/02/14 01:16:28;;;;;;;3.30;2.23;;;16.20;82.60;;;16.10;38.69;99881.44;4923010;28;97241;-58
2022/02/14 01:18:54;;;;;;;4.63;2.70;;;16.20;82.50;;;16.09;38.57;99859.31;4922629;28;97368;-57
2022/02/14 01:21:20;;;;;;;4.17;2.63;;;16.20;81.60;;;16.08;38.94;99860.28;4927025;28;118027;-59
2022/02/14 01:23:46;;;;;;;3.70;2.70;;;16.20;82.30;;;16.10;38.68;99855.69;4923254;28;97349;-56
2022/02/14 01:26:12;;;;;;;3.50;2.53;;;16.30;82.50;;;16.10;38.78;99855.69;4933739;28;111527;-57
2022/02/14 01:28:38;;;;;;;3.50;2.67;;;16.30;82.30;;;16.11;38.55;99849.41;4920839;28;97298;-56
2022/02/14 01:31:03;;;;;;;4.20;2.73;;;16.30;82.00;;;16.13;38.57;99844.84;4923764;28;113761;-57
2022/02/14 01:33:29;;;;;;;3.37;2.23;;;16.30;81.90;;;16.14;38.37;99843.88;4923372;28;124347;-57
2022/02/14 01:36:00;;;;;;;2.87;2.40;;;16.30;81.70;;;16.16;38.41;99833.97;4919224;28;100059;-58
2022/02/14 01:38:25;;;;;;;3.87;2.00;;;16.30;81.80;;;16.16;38.40;99836.63;4928047;28;97823;-62
2022/02/14 01:40:51;;;;;;;2.83;2.20;;;16.30;82.10;;;16.20;38.45;99835.47;4910649;28;114658;-59
2022/02/14 01:43:17;;;;;;;5.63;2.50;;;16.40;82.10;;;16.23;38.39;99837.06;4928353;28;98289;-59
2022/02/14 01:45:43;;;;;;;2.67;2.03;;;16.40;81.30;;;16.20;38.33;99824.81;4921983;28;98265;-57
2022/02/14 01:48:10;;;;;;;2.57;2.00;;;16.30;82.30;;;16.21;38.57;99821.19;4924908;28;96995;-56
2022/02/14 01:50:37;;;;;;;4.17;2.40;;;16.30;82.10;;;16.22;38.68;99812.25;4917137;28;97025;-59
2022/02/14 01:53:04;;;;;;;4.90;2.13;;;16.40;82.00;;;16.26;38.53;99813.72;4927850;28;100842;-58
2022/02/14 01:55:32;;;;;;;2.50;2.27;;;16.40;82.10;;;16.24;38.48;99815.66;4921679;28;104509;-56
2022/02/14 01:58:03;;;;;;;2.50;1.80;;;16.40;81.70;;;16.25;38.38;99812.03;4932499;28;97834;-58
2022/02/14 02:00:29;;;;;;;2.10;1.90;;;16.40;81.80;;;16.22;38.38;99812.25;4920541;28;96978;-57
2022/02/14 02:02:56;;;;;;;3.13;2.40;;;16.40;82.00;;;16.19;38.39;99820.44;4921011;28;128458;-56
2022/02/14 02:05:23;;;;;;;3.83;2.47;;;16.30;81.60;;;16.20;38.61;99808.88;4913650;28;99111;-59
2022/02/14 02:07:51;;;;;;;2.47;1.80;;;16.30;82.00;;;16.17;38.63;99814.38;4916743;28;97213;-56
2022/02/14 02:10:18;;;;;;;2.30;2.10;;;16.30;82.80;;;16.15;38.72;99816.31;4916711;28;96758;-58
2022/02/14 02:12:53;;;;;;;3.67;2.67;;;16.30;82.40;;;16.17;38.49;99803.75;4922592;28;97655;-58
2022/02/14 02:15:20;;;;;;;4.20;2.47;;;16.30;81.20;;;16.09;38.72;99800.78;4930283;28;99147;-57
2022/02/14 02:17:46;;;;;;;2.00;1.80;;;16.10;82.20;;;16.07;39.00;99786.75;4911260;28;97286;-58
2022/02/14 02:20:16;;;;;;;4.07;2.40;;;16.10;83.10;;;16.08;38.93;99777.81;4929357;28;96692;-57
2022/02/14 02:22:45;;;;;;;2.67;1.80;;;16.20;83.20;;;16.08;38.98;99780.47;4897770;28;99321;-57
2022/02/14 02:25:12;;;;;;;3.53;2.40;;;16.20;83.10;;;16.08;38.83;99783.13;4921725;28;97708;-58
2022/02/14 02:27:39;;;;;;;4.60;2.10;;;16.20;82.30;;;16.08;38.98;99772.50;4919813;28;97282;-58
2022/02/14 02:30:09;;;;;;;5.37;2.40;;;16.10;82.70;;;16.09;38.90;99763.56;4931858;28;99174;-59
2022/02/14 02:32:35;;;;;;;3.30;1.90;;;16.20;82.60;;;16.11;38.79;99777.59;4921116;28;97039;-56
2022/02/14 02:35:04;;;;;;;2.60;2.23;;;16.20;82.40;;;16.14;38.61;99768.53;4933752;28;96955;-57
2022/02/14 02:37:31;;;;;;;2.57;1.90;;;16.30;82.50;;;16.12;38.83;99767.78;4923083;28;97335;-57
2022/02/14 02:39:57;;;;;;;2.57;2.10;;;16.30;82.50;;;16.09;39.09;99755.56;4929338;28;97097;-59
2022/02/14 02:42:24;;;;;;;4.80;2.43;;;16.20;82.60;;;16.11;38.47;99756.31;4926382;28;97291;-57
2022/02/14 02:44:52;;;;;;;4.53;2.50;;;16.30;81.50;;;16.12;38.72;99752.69;4923742;28;97841;-57
2022/02/14 02:47:21;;;;;;;3.00;2.13;;;16.30;82.30;;;16.08;38.21;99742.38;4927961;28;97065;-57
2022/02/14 02:49:47;;;;;;;3.30;2.00;;;16.20;81.40;;;16.05;38.75;99741.63;4924454;28;96953;-58
2022/02/14 02:52:16;;;;;;;2.93;2.03;;;16.20;82.60;;;16.02;38.66;99730.38;4924489;28;97683;-56
2022/02/14 02:54:42;;;;;;;3.13;2.03;;;16.10;82.30;;;16.04;38.89;99733.75;4879410;28;96985;-56
2022/02/14 02:57:08;;;;;;;2.43;2.17;;;16.10;83.30;;;16.01;38.89;99724.19;4928352;28;97006;-57
2022/02/14 02:59:35;;;;;;;4.20;2.40;;;16.10;82.60;;;15.83;39.17;99724.69;4925117;28;113440;-57
2022/02/14 03:02:03;;;;;;;3.77;2.20;;;15.80;83.30;;;15.77;39.63;99720.69;4935854;28;97106;-58
2022/02/14 03:04:28;;;;;;;4.80;2.23;;;15.70;84.40;;;15.75;39.11;99723.41;4923985;28;96769;-58
2022/02/14 03:06:54;;;;;;;3.30;2.20;;;15.70;83.20;;;15.71;39.60;99710.47;4930482;28;112194;-58
2022/02/14 03:09:20;;;;;;;2.73;2.00;;;15.60;84.10;;;15.75;39.72;99718.09;4925726;28;110320;-57
2022/02/14 03:11:46;;;;;;;3.07;2.20;;;15.70;84.00;;;15.64;39.42;99704.75;4926663;28;103780;-59
2022/02/14 03:14:14;;;;;;;3.80;2.60;;;15.60;83.90;;;15.65;39.50;99690.50;4931241;28;125838;-58
2022/02/14 03:16:41;;;;;;;5.03;2.40;;;15.50;83.70;;;15.64;39.70;99683.47;4921183;28;98765;-55
2022/02/14 03:19:16;;;;;;;3.00;2.27;;;15.50;84.00;;;15.62;39.70;99680.09;4926692;28;97513;-59
2022/02/14 03:21:41;;;;;;;3.90;2.40;;;15.60;84.50;;;15.55;39.05;99710.69;4920841;28;117520;-57
2022/02/14 03:24:07;;;;;;;4.27;2.77;;;15.50;83.60;;;15.58;39.68;99678.56;4933431;28;115789;-55
2022/02/14 03:26:33;;;;;;;3.43;2.10;;;15.50;84.40;;;15.64;39.60;99678.16;4908678;28;97487;-57
2022/02/14 03:28:59;;;;;;;6.03;2.50;;;15.70;84.20;;;15.67;39.74;99683.25;4929151;28;97139;-58
2022/02/14 03:31:25;;;;;;;4.17;2.27;;;15.70;84.30;;;15.72;39.58;99673.13;4924911;28;97257;-64
2022/02/14 03:33:51;;;;;;;3.90;2.53;;;15.80;83.80;;;15.74;39.37;99659.72;4930292;28;101358;-55
2022/02/14 03:36:19;;;;;;;3.53;2.17;;;15.80;83.30;;;15.72;39.38;99674.94;4929515;28;97104;-58
2022/02/14 03:38:46;;;;;;;3.50;2.10;;;15.70;83.40;;;15.65;39.68;99677.22;4928185;28;98517;-58
2022/02/14 03:41:12;;;;;;;3.30;1.90;;;15.60;83.90;;;15.65;39.93;99666.56;4917745;28;99387;-59
2022/02/14 03:43:38;;;;;;;2.40;1.97;;;15.60;84.90;;;15.66;39.75;99654.97;4923176;28;97110;-57
2022/02/14 03:46:04;;;;;;;2.23;1.77;;;15.60;85.00;;;15.68;39.64;99641.56;4929757;28;109761;-59
2022/02/14 03:48:30;;;;;;;2.10;1.90;;;15.70;84.90;;;15.69;39.73;99636.13;4921986;28;97117;-58
2022/02/14 03:50:56;;;;;;;4.17;2.10;;;15.70;84.70;;;15.73;39.71;99634.09;4924298;28;105887;-57
2022/02/14 03:53:26;;;;;;;2.57;2.07;;;15.80;84.30;;;15.71;39.74;99631.56;4925709;28;98236;-59
2022/02/14 03:55:52;;;;;;;2.90;1.80;;;15.70;84.60;;;15.70;39.67;99632.53;4926660;28;98610;-59
2022/02/14 03:58:18;;;;;;;4.63;1.83;;;15.70;84.10;;;15.63;39.76;99641.91;4929963;28;108768;-57
2022/02/14 04:00:44;;;;;;;3.87;1.90;;;15.60;85.10;;;15.61;39.76;99656.25;4922027;28;100282;-57
2022/02/14 04:03:10;;;;;;;3.67;1.70;;;15.50;85.10;;;15.51;40.21;99658.72;4926352;28;97472;-56
2022/02/14 04:05:36;;;;;;;3.37;1.97;;;15.40;85.90;;;15.46;40.29;99671.44;4921619;28;98853;-58
2022/02/14 04:08:02;;;;;;;2.83;1.90;;;15.30;85.20;;;15.37;40.27;99674.78;4930150;28;116723;-57
2022/02/14 04:10:29;;;;;;;2.87;2.10;;;15.20;86.10;;;15.32;40.38;99676.91;4919648;28;97404;-58
2022/02/14 04:12:55;;;;;;;2.13;1.73;;;15.10;86.30;;;15.35;40.59;99676.72;4923223;28;97053;-58
2022/02/14 04:15:22;;;;;;;2.50;1.70;;;15.10;87.00;;;15.36;40.37;99662.47;4927973;28;98505;-59
2022/02/14 04:17:48;;;;;;;4.20;1.80;;;15.20;86.00;;;15.39;40.75;99656.91;4924701;28;97073;-58
2022/02/14 04:20:15;;;;;;;3.93;1.90;;;15.20;86.20;;;15.36;40.60;99651.84;4923403;28;99080;-55
2022/02/14 04:22:41;;;;;;;2.47;1.73;;;15.20;85.90;;;15.40;40.74;99648.00;4920160;28;97514;-58
2022/02/14 04:25:13;;;;;;;4.03;2.03;;;15.30;86.10;;;15.37;40.35;99642.91;4911966;28;119180;-59
2022/02/14 04:27:41;;;;;;;2.73;1.93;;;15.20;86.10;;;15.36;40.39;99651.84;4927497;28;96989;-58
2022/02/14 04:30:08;;;;;;;2.43;1.70;;;15.20;86.00;;;15.35;40.62;99653.66;4923243;28;96873;-57
2022/02/14 04:32:34;;;;;;;2.63;1.70;;;15.20;87.00;;;15.31;40.74;99648.63;4925353;28;97079;-57
2022/02/14 04:35:00;;;;;;;2.20;1.77;;;15.20;86.90;;;15.37;40.52;99648.22;4925926;28;97177;-59
2022/02/14 04:37:26;;;;;;;3.30;1.93;;;15.20;86.40;;;15.42;40.41;99640.75;4921242;28;97749;-63
2022/02/14 04:39:52;;;;;;;2.60;1.80;;;15.40;85.80;;;15.46;40.53;99631.59;4921229;28;103030;-58
2022/02/14 04:42:18;;;;;;;3.63;1.60;;;15.40;85.80;;;15.45;40.01;99646.69;4927824;28;98353;-58
2022/02/14 04:44:44;;;;;;;3.70;2.00;;;15.40;85.40;;;15.49;40.52;99636.72;4926572;28;97520;-57
2022/02/14 04:47:10;;;;;;;2.27;1.47;;;15.50;85.80;;;15.50;40.57;99642.88;4928686;28;97855;-59
2022/02/14 04:49:35;;;;;;;5.50;2.17;;;15.40;86.00;;;15.46;40.57;99644.88;4927188;28;102315;-57
2022/02/14 04:52:01;;;;;;;2.23;1.33;;;15.40;86.00;;;15.46;40.35;99637.75;4925728;28;104121;-59
2022/02/14 04:54:27;;;;;;;2.90;1.67;;;15.40;86.00;;;15.45;40.33;99651.16;4927241;28;96778;-58
2022/02/14 04:56:53;;;;;;;3.70;1.77;;;15.40;86.10;;;15.45;40.50;99648.50;4931670;28;97093;-58
2022/02/14 04:59:19;;;;;;;3.23;1.60;;;15.40;86.60;;;15.53;40.41;99632.88;4931056;28;98672;-58
2022/02/14 05:01:45;;;;;;;1.90;1.43;;;15.50;86.00;;;15.60;40.45;99623.50;4928386;28;103496;-60
2022/02/14 05:04:11;;;;;;;1.73;1.50;;;15.60;85.50;;;15.62;40.25;99632.25;4925111;28;122554;-57
2022/02/14 05:06:36;;;;;;;1.93;1.50;;;15.60;85.60;;;15.65;40.20;99624.03;4920858;28;122547;-58
2022/02/14 05:09:03;;;;;;;4.07;1.93;;;15.70;85.20;;;15.65;40.06;99632.03;4923783;28;104728;-59
2022/02/14 05:11:28;;;;;;;2.13;1.40;;;15.70;85.20;;;15.72;40.23;99627.94;4925816;28;120648;-60
2022/02/14 05:13:54;;;;;;;2.07;1.23;;;15.80;85.30;;;15.75;39.75;99629.50;4922986;28;96802;-56
2022/02/14 05:16:24;;;;;;;1.53;1.30;;;15.90;84.60;;;15.79;39.83;99624.84;4918672;28;110069;-56
2022/02/14 05:18:51;;;;;;;3.47;1.43;;;15.90;84.70;;;15.85;39.75;99635.03;4922770;28;97406;-58
2022/02/14 05:21:22;;;;;;;3.33;1.67;;;15.90;84.80;;;15.90;39.30;99641.69;4927523;28;98140;-58
2022/02/14 05:23:51;;;;;;;5.30;2.17;;;16.00;84.10;;;15.86;39.73;99644.69;4921141;28;117630;-57
2022/02/14 05:26:18;;;;;;;2.73;1.53;;;15.90;84.60;;;15.80;39.84;99635.38;4932095;28;96767;-59
2022/02/14 05:28:43;;;;;;;2.57;1.73;;;15.80;85.00;;;15.87;39.71;99641.06;4930834;28;97351;-58
2022/02/14 05:31:09;;;;;;;4.33;1.97;;;15.80;84.80;;;15.89;39.80;99628.50;4927060;28;110819;-59
2022/02/14 05:33:35;;;;;;;2.57;1.73;;;15.90;84.30;;;15.92;39.68;99628.31;4922078;28;122475;-58
2022/02/14 05:36:00;;;;;;;2.30;1.40;;;15.90;84.20;;;15.92;39.68;99636.28;4923640;28;97496;-59
2022/02/14 05:38:26;;;;;;;1.73;1.23;;;15.90;85.00;;;15.94;39.59;99637.00;4943476;28;129329;-61
2022/02/14 05:40:52;;;;;;;2.03;1.40;;;15.90;84.50;;;15.92;39.77;99630.97;4924309;28;130704;-60
2022/02/14 05:43:18;;;;;;;2.80;1.40;;;15.90;85.00;;;15.95;39.67;99622.75;4928416;28;99722;-57
2022/02/14 05:45:44;;;;;;;1.77;1.60;;;16.00;84.90;;;15.96;39.75;99624.44;4917642;28;96996;-58
2022/02/14 05:48:10;;;;;;;1.60;1.40;;;16.00;84.70;;;16.02;39.73;99616.84;4924675;28;97875;-58
2022/02/14 05:50:35;;;;;;;3.10;1.90;;;16.10;84.30;;;16.06;39.27;99617.50;4917316;28;97189;-57
2022/02/14 05:53:01;;;;;;;2.80;1.40;;;16.20;83.90;;;16.08;39.43;99612.91;4923737;28;112130;-59
2022/02/14 05:55:27;;;;;;;3.13;1.37;;;16.20;84.10;;;16.09;39.84;99609.28;4928843;28;97006;-58
2022/02/14 05:57:53;;;;;;;3.10;1.63;;;16.20;84.40;;;16.08;39.41;99607.56;4924208;28;100835;-58
2022/02/14 06:00:19;;;;;;;1.63;1.30;;;16.20;84.20;;;16.04;39.65;99600.78;4923896;28;98367;-57
2022/02/14 06:02:45;;;;;;;2.23;1.60;;;16.20;84.20;;;16.12;39.64;99616.16;4924919;28;115053;-57
2022/02/14 06:05:11;;;;;;;3.97;1.90;;;16.30;84.00;;;16.13;39.35;99615.22;4932075;28;97075;-59
2022/02/14 06:07:37;;;;;;;2.57;1.27;;;16.30;83.80;;;16.17;39.47;99612.19;4922164;28;116059;-56
2022/02/14 06:10:03;;;;;;;2.03;1.60;;;16.30;84.00;;;16.13;39.56;99605.41;4920759;28;97142;-56
2022/02/14 06:12:29;;;;;;;1.60;1.30;;;16.30;83.90;;;16.14;39.66;99608.91;4923594;28;97010;-57
2022/02/14 06:14:55;;;;;;;4.80;1.50;;;16.30;83.90;;;16.14;39.48;99616.91;4924369;28;97014;-57
2022/02/14 06:17:20;;;;;;;3.40;2.00;;;16.30;84.00;;;16.13;39.65;99607.22;4925345;28;97281;-58
2022/02/14 06:19:46;;;;;;;3.63;1.70;;;16.20;84.10;;;16.06;39.72;99612.16;4924384;28;97104;-58
2022/02/14 06:22:12;;;;;;;2.13;1.37;;;16.10;84.60;;;16.03;39.86;99612.38;4911562;28;97802;-58
2022/02/14 06:24:38;;;;;;;2.03;1.60;;;16.10;84.80;;;16.05;39.93;99615.75;4927154;28;97805;-59
2022/02/14 06:27:04;;;;;;;2.07;1.40;;;16.10;84.80;;;15.99;39.92;99618.88;4924962;28;96875;-59
2022/02/14 06:29:30;;;;;;;2.20;1.50;;;16.00;85.00;;;16.05;39.80;99615.75;4908087;28;126191;-57
2022/02/14 06:31:56;;;;;;;3.70;1.60;;;16.10;84.50;;;16.08;39.87;99612.91;4927275;28;122333;-59
2022/02/14 06:34:22;;;;;;;3.40;1.90;;;16.20;84.70;;;16.06;39.85;99612.16;4926834;28;97432;-58
2022/02/14 06:36:48;;;;;;;2.83;1.80;;;16.10;84.70;;;16.07;40.04;99608.53;4924405;28;97322;-58
2022/02/14 06:39:14;;;;;;;3.83;2.03;;;16.20;85.10;;;16.01;39.86;99611.66;4922447;28;125100;-57
2022/02/14 06:41:40;;;;;;;2.13;1.40;;;16.10;85.40;;;15.99;39.90;99610.91;4921693;28;98600;-59
2022/02/14 06:44:06;;;;;;;4.13;1.77;;;16.00;85.40;;;15.92;40.21;99618.50;4925455;28;121103;-56
2022/02/14 06:46:31;;;;;;;3.47;1.50;;;15.90;86.20;;;15.89;40.13;99612.56;4922815;28;112117;-57
2022/02/14 06:48:58;;;;;;;1.97;1.50;;;15.80;86.00;;;15.84;39.97;99620.03;4924437;28;125734;-57
2022/02/14 06:51:24;;;;;;;3.17;1.80;;;15.80;86.00;;;15.82;40.31;99621.97;4925120;28;96834;-58
2022/02/14 06:53:50;;;;;;;3.23;1.40;;;15.80;86.50;;;15.76;40.65;99621.41;4917990;28;126381;-58
2022/02/14 06:56:18;;;;;;;5.03;1.93;;;15.70;86.80;;;15.76;40.65;99621.41;4920993;28;98645;-56
2022/02/14 06:58:44;;;;;;;2.27;1.47;;;15.70;86.80;;;15.82;40.22;99621.97;4926162;28;97595;-58
2022/02/14 07:01:10;;;;;;;3.37;1.50;;;15.80;86.10;;;15.76;40.47;99613.44;4930734;28;97101;-58
2022/02/14 07:03:39;;;;;;;1.40;1.10;;;15.80;86.30;;;15.83;40.50;99619.19;4927151;28;98483;-56
2022/02/14 07:06:06;;;;;;;2.67;1.80;;;15.90;85.70;;;15.86;40.17;99623.41;4926218;28;97042;-56
2022/02/14 07:08:32;;;;;;;2.27;1.70;;;16.00;85.80;;;15.91;40.45;99631.91;4925909;28;102941;-60
2022/02/14 07:10:59;;;;;;;2.60;1.60;;;16.00;85.60;;;15.87;40.43;99625.13;4926707;28;97028;-58
2022/02/14 07:13:25;;;;;;;1.93;1.50;;;15.90;86.80;;;15.90;40.29;99633.72;4928633;28;97285;-56
2022/02/14 07:15:51;;;;;;;2.10;1.20;;;15.90;85.90;;;15.92;40.12;99634.47;4925223;28;102530;-59
2022/02/14 07:18:17;;;;;;;3.10;1.80;;;16.00;86.00;;;15.94;40.59;99631.69;4922357;28;119095;-56
2022/02/14 07:20:43;;;;;;;2.77;1.40;;;16.00;86.70;;;15.94;40.30;99626.38;4926848;28;97818;-58
2022/02/14 07:23:10;;;;;;;2.80;1.67;;;16.00;86.20;;;15.95;40.40;99638.72;4927244;28;97638;-58
2022/02/14 07:25:36;;;;;;;1.87;1.40;;;16.00;86.80;;;15.97;40.37;99626.13;4916743;28;98153;-59
2022/02/14 07:28:02;;;;;;;3.23;1.70;;;16.00;86.80;;;16.00;40.65;99625.91;4919055;28;97168;-59
2022/02/14 07:30:28;;;;;;;2.90;1.70;;;16.00;86.80;;;15.96;40.59;99638.59;4922356;28;96976;-60
2022/02/14 07:32:53;;;;;;;2.33;1.47;;;16.00;87.40;;;15.96;40.36;99643.91;4921287;28;97340;-60
2022/02/14 07:35:19;;;;;;;2.17;1.40;;;15.90;86.30;;;16.00;40.31;99641.88;4918257;28;97004;-59
2022/02/14 07:37:45;;;;;;;2.23;1.53;;;16.00;86.20;;;16.00;40.31;99634.72;4917920;28;97104;-59
2022/02/14 07:40:13;;;;;;;2.70;1.50;;;16.00;87.70;;;15.99;40.78;99650.81;4929208;28;97144;-59
2022/02/14 07:42:40;;;;;;;3.70;2.00;;;16.00;88.30;;;15.94;41.83;99652.97;4927618;28;97362;-57
2022/02/14 07:45:07;;;;;;;1.77;1.37;;;15.90;90.00;;;15.90;41.17;99646.16;4926170;28;102762;-59
2022/02/14 07:47:36;;;;;;;3.43;1.70;;;15.80;88.20;;;15.89;40.84;99637.31;4924975;28;97213;-59
2022/02/14 07:50:03;;;;;;;3.23;1.87;;;15.80;88.00;;;15.89;41.12;99647.13;4925269;28;98047;-59
2022/02/14 07:52:28;;;;;;;2.50;1.30;;;15.80;89.60;;;15.85;40.81;99645.66;4931595;28;97030;-61
2022/02/14 07:54:54;;;;;;;1.77;1.13;;;15.80;88.20;;;15.84;40.98;99651.94;4927870;28;110547;-58
2022/02/14 07:57:20;;;;;;;1.63;1.37;;;15.80;88.10;;;15.89;40.64;99655.94;4925860;28;97590;-59
2022/02/14 07:59:46;;;;;;;2.20;1.87;;;15.80;88.00;;;15.82;42.04;99653.84;4925280;28;96984;-59
2022/02/14 08:02:12;;;;;;;2.43;1.90;;;15.70;90.10;;;15.72;41.79;99654.53;4925882;28;118094;-59
2022/02/14 08:04:43;;;;;;;3.40;1.30;;;15.60;90.70;;;15.75;41.18;99650.78;4925868;28;120701;-59
2022/02/14 08:07:09;;;;;;;2.70;1.93;;;15.60;89.40;;;15.62;42.00;99653.50;4924039;28;98420;-59
2022/02/14 08:09:36;;;;;;;1.93;1.33;;;15.50;90.70;;;15.67;41.18;99645.19;4923926;28;98385;-59
2022/02/14 08:12:04;;;;;;;4.13;1.53;;;15.50;89.10;;;15.72;41.51;99643.03;4926364;28;99084;-59
2022/02/14 08:14:30;;;;;;;2.40;1.50;;;15.70;88.90;;;15.69;41.59;99641.47;4920518;28;101122;-59
2022/02/14 08:16:56;;;;;;;2.30;1.40;;;15.60;90.10;;;15.72;41.53;99654.53;4925307;28;98239;-59
2022/02/14 08:19:22;;;;;;;1.77;1.30;;;15.60;89.10;;;15.69;41.44;99646.78;4913371;28;97589;-59
2022/02/14 08:21:50;;;;;;;1.90;1.10;;;15.60;89.50;;;15.67;41.58;99650.50;4928807;28;97235;-59
2022/02/14 08:24:15;;;;;;;3.17;2.13;;;15.60;90.10;;;15.67;43.24;99651.34;4929367;28;105027;-58
2022/02/14 08:26:41;;;;;;;4.97;2.60;;;15.60;91.10;;;15.62;43.50;99648.19;4924638;28;112701;-59
2022/02/14 08:29:07;;;;;;;2.87;1.93;;;15.50;91.50;;;15.52;43.20;99654.25;4930500;28;116888;-59
2022/02/14 08:31:33;;;;;;;5.73;2.23;;;15.40;91.60;;;15.50;43.33;99649.03;4924464;28;96837;-59
2022/02/14 08:33:59;;;;;;;7.20;3.00;;;15.30;92.40;;;15.35;44.44;99660.75;4930736;28;97769;-59
2022/02/14 08:36:26;;;;;;;1.50;1.30;;;15.20;92.90;;;15.23;43.98;99659.81;4932730;28;122159;-59
2022/02/14 08:38:52;;;;;;;4.33;2.37;;;15.10;92.40;;;15.12;44.67;99660.56;4924405;28;97500;-59
2022/02/14 08:41:19;;;;;;;2.27;1.63;;;15.00;92.90;;;15.00;44.59;99655.25;4932522;28;97548;-59
2022/02/14 08:43:48;;;;;;;2.37;1.40;;;14.90;92.70;;;15.02;44.44;99659.50;4923328;28;98037;-57
2022/02/14 08:46:15;;;;;;;2.20;1.67;;;14.80;92.80;;;15.07;43.75;99649.44;4931727;28;96945;-59
2022/02/14 08:48:41;;;;;;;8.80;2.93;;;15.00;91.90;;;14.96;47.79;99659.09;4926820;28;99390;-59
2022/02/14 08:51:07;;;;;;;5.37;2.30;;;14.90;94.30;;;15.05;44.17;99663.78;4928316;28;97089;-59
2022/02/14 08:53:37;;;;;;;4.63;2.70;;;14.90;93.00;;;15.04;47.33;99668.19;4926159;28;97145;-59
2022/02/14 08:56:05;;;;;;;5.37;2.63;;;15.00;93.80;;;15.02;47.20;99664.81;4925862;28;97600;-58
2022/02/14 08:58:32;;;;;;;4.37;2.00;;;14.90;93.70;;;15.11;45.29;99664.19;4922550;28;97392;-58
2022/02/14 09:00:58;;;;;;;7.63;2.63;;;15.00;92.80;;;15.15;45.83;99664.81;4929244;28;97028;-58
2022/02/14 09:03:24;;;;;;;3.67;1.80;;;15.00;93.50;;;15.18;43.77;99676.06;4922282;28;97666;-59
2022/02/14 09:05:49;;;;;;;2.90;2.17;;;15.00;93.00;;;15.06;47.41;99679.59;4921929;28;99051;-59
2022/02/14 09:08:15;;;;;;;4.43;2.10;;;15.00;94.10;;;14.88;47.84;99663.09;4934192;28;96891;-59
2022/02/14 09:10:42;;;;;;;3.30;1.83;;;14.80;94.90;;;14.81;48.54;99666.31;4919920;28;111397;-59
2022/02/14 09:13:08;;;;;;;2.57;1.47;;;14.70;95.20;;;14.79;45.46;99668.22;4932477;28;98157;-59
2022/02/14 09:15:33;;;;;;;5.00;1.83;;;14.60;93.40;;;14.72;47.29;99656.31;4926622;28;97756;-59
2022/02/14 09:17:59;;;;;;;3.93;2.10;;;14.60;95.00;;;14.71;46.73;99665.22;4928181;28;120925;-59
2022/02/14 09:20:25;;;;;;;3.13;2.00;;;14.60;94.40;;;14.77;48.60;99664.81;4926070;28;113370;-59
2022/02/14 09:22:52;;;;;;;1.63;1.20;;;14.70;95.10;;;14.77;44.83;99659.50;4927321;28;120020;-59
2022/02/14 09:25:18;;;;;;;3.17;1.50;;;14.70;93.00;;;14.86;46.31;99669.47;4928645;28;99233;-59
2022/02/14 09:27:44;;;;;;;4.53;1.90;;;14.80;93.90;;;14.80;48.40;99675.22;4921964;28;112012;-59
2022/02/14 09:30:10;;;;;;;2.70;1.37;;;14.80;94.70;;;14.84;47.26;99666.94;4924999;28;97951;-58
2022/02/14 09:32:36;;;;;;;1.17;1.03;;;14.80;94.60;;;14.85;45.19;99673.94;4922717;28;99062;-59
2022/02/14 09:35:01;;;;;;;2.07;1.50;;;14.80;93.60;;;14.83;47.47;99685.63;4930035;28;112503;-58
2022/02/14 09:37:27;;;;;;;4.03;1.70;;;14.80;94.40;;;14.81;48.46;99668.97;4922309;28;97407;-62
2022/02/14 09:39:53;;;;;;;2.07;1.30;;;14.80;95.20;;;14.84;47.99;99666.09;4930291;28;97694;-59
2022/02/14 09:42:19;;;;;;;3.03;1.10;;;14.80;94.70;;;14.73;49.15;99673.94;4930210;28;101988;-58
2022/02/14 09:44:45;;;;;;;3.37;1.27;;;14.70;95.50;;;14.81;47.01;99671.63;4927193;28;98514;-59
2022/02/14 09:47:11;;;;;;;1.57;1.10;;;14.80;94.90;;;14.95;44.66;99674.16;4927823;28;96899;-57
2022/02/14 09:49:41;;;;;;;4.07;1.10;;;14.90;93.00;;;14.85;48.29;99670.44;4923036;28;97342;-59
2022/02/14 09:52:07;;;;;;;2.87;1.33;;;14.80;95.80;;;14.72;48.62;99666.91;4928157;28;96869;-59
2022/02/14 09:54:33;;;;;;;3.77;1.20;;;14.70;95.50;;;14.71;48.64;99673.19;4922725;28;121982;-59
2022/02/14 09:56:59;;;;;;;2.60;1.07;;;14.70;95.90;;;14.80;47.04;99669.91;4915043;28;122423;-58
2022/02/14 09:59:34;;;;;;;2.10;0.97;;;14.80;95.90;;;14.84;49.32;99679.38;4909542;28;109578;-58
2022/02/14 10:02:18;;;;;;;4.60;1.30;;;14.80;95.90;;;14.77;49.09;99681.59;4924972;28;100219;-59
2022/02/14 10:05:18;;;;;;;2.27;1.00;;;14.70;96.10;;;14.87;47.95;99687.13;4919457;28;96994;-59
2022/02/14 10:07:49;;;;;;;4.17;1.03;;;14.80;95.10;;;14.85;49.56;99679.25;4925155;28;100278;-58
2022/02/14 10:10:25;;;;;;;2.47;1.00;;;14.80;96.00;;;14.83;47.51;99697.09;4924966;28;98066;-59
2022/02/14 10:12:55;;;;;;;0.80;0.60;;;14.80;95.50;;;14.85;47.31;99692.53;4927729;28;101617;-58
2022/02/14 10:15:23;;;;;;;2.43;0.90;;;14.80;94.80;;;14.97;47.15;99693.50;4925416;28;97156;-59